sensor_id;sensor_type;location;lat;lon;timestamp;pressure;altitude;pressure_sealevel;temperature;humidity
75221;BME280;63802;53.232;6.570;2023-02-01T00:00:32;101602.84;;;5.50;80.54
75221;BME280;63802;53.232;6.570;2023-02-01T00:02:59;101620.25;;;5.57;80.59
75221;BME280;63802;53.232;6.570;2023-02-01T00:05:25;101614.03;;;5.57;80.76
75221;BME280;63802;53.232;6.570;2023-02-01T00:07:50;101608.00;;;5.60;80.08
75221;BME280;63802;53.232;6.570;2023-02-01T00:10:16;101619.28;;;5.53;80.45
75221;BME280;63802;53.232;6.570;2023-02-01T00:12:42;101605.06;;;5.48;79.85
75221;BME280;63802;53.232;6.570;2023-02-01T00:15:08;101608.09;;;5.46;80.40
75221;BME280;63802;53.232;6.570;2023-02-01T00:17:34;101610.97;;;5.50;80.07
75221;BME280;63802;53.232;6.570;2023-02-01T00:19:59;101603.47;;;5.47;80.13
75221;BME280;63802;53.232;6.570;2023-02-01T00:22:25;101594.59;;;5.55;80.28
75221;BME280;63802;53.232;6.570;2023-02-01T00:24:50;101602.56;;;5.51;80.06
75221;BME280;63802;53.232;6.570;2023-02-01T00:27:15;101585.63;;;5.46;79.66
75221;BME280;63802;53.232;6.570;2023-02-01T00:29:45;101593.03;;;5.54;79.54
75221;BME280;63802;53.232;6.570;2023-02-01T00:32:11;101582.09;;;5.36;80.16
75221;BME280;63802;53.232;6.570;2023-02-01T00:34:36;101608.78;;;5.52;79.83
75221;BME280;63802;53.232;6.570;2023-02-01T00:37:02;101592.38;;;5.57;79.84
75221;BME280;63802;53.232;6.570;2023-02-01T00:39:27;101602.59;;;5.60;79.36
75221;BME280;63802;53.232;6.570;2023-02-01T00:41:52;101581.38;;;5.53;79.16
75221;BME280;63802;53.232;6.570;2023-02-01T00:44:18;101590.66;;;5.61;79.53
75221;BME280;63802;53.232;6.570;2023-02-01T00:46:43;101581.56;;;5.57;79.50
75221;BME280;63802;53.232;6.570;2023-02-01T00:49:09;101588.94;;;5.65;79.14
75221;BME280;63802;53.232;6.570;2023-02-01T00:51:34;101590.06;;;5.64;79.25
75221;BME280;63802;53.232;6.570;2023-02-01T00:54:00;101580.13;;;5.59;79.38
75221;BME280;63802;53.232;6.570;2023-02-01T00:56:25;101591.50;;;5.70;79.09
75221;BME280;63802;53.232;6.570;2023-02-01T00:58:53;101581.94;;;5.64;79.47
75221;BME280;63802;53.232;6.570;2023-02-01T01:01:19;101577.13;;;5.61;79.29
75221;BME280;63802;53.232;6.570;2023-02-01T01:04:11;101593.66;;;5.59;80.01
75221;BME280;63802;53.232;6.570;2023-02-01T01:06:37;101574.28;;;5.66;79.31
75221;BME280;63802;53.232;6.570;2023-02-01T01:09:04;101579.06;;;5.69;79.35
75221;BME280;63802;53.232;6.570;2023-02-01T01:11:32;101570.47;;;5.67;79.49
75221;BME280;63802;53.232;6.570;2023-02-01T01:13:59;101587.84;;;5.66;79.32
75221;BME280;63802;53.232;6.570;2023-02-01T01:16:27;101566.97;;;5.66;79.60
75221;BME280;63802;53.232;6.570;2023-02-01T01:18:53;101560.44;;;5.67;79.28
75221;BME280;63802;53.232;6.570;2023-02-01T01:21:19;101555.81;;;5.68;79.52
75221;BME280;63802;53.232;6.570;2023-02-01T01:23:46;101552.63;;;5.66;79.45
75221;BME280;63802;53.232;6.570;2023-02-01T01:26:19;101553.25;;;5.63;79.72
75221;BME280;63802;53.232;6.570;2023-02-01T01:28:44;101558.22;;;5.69;79.78
75221;BME280;63802;53.232;6.570;2023-02-01T01:31:11;101545.47;;;5.70;79.84
75221;BME280;63802;53.232;6.570;2023-02-01T01:33:37;101520.16;;;5.66;79.88
75221;BME280;63802;53.232;6.570;2023-02-01T01:36:05;101541.16;;;5.69;80.22
75221;BME280;63802;53.232;6.570;2023-02-01T01:38:30;101537.50;;;5.65;80.30
75221;BME280;63802;53.232;6.570;2023-02-01T01:40:56;101551.03;;;5.65;80.65
75221;BME280;63802;53.232;6.570;2023-02-01T01:43:21;101535.25;;;5.67;81.24
75221;BME280;63802;53.232;6.570;2023-02-01T01:45:48;101534.28;;;5.54;81.70
75221;BME280;63802;53.232;6.570;2023-02-01T01:48:21;101515.13;;;5.51;81.87
75221;BME280;63802;53.232;6.570;2023-02-01T01:51:10;101531.69;;;5.49;82.55
75221;BME280;63802;53.232;6.570;2023-02-01T01:53:49;101521.28;;;5.42;82.97
75221;BME280;63802;53.232;6.570;2023-02-01T01:56:17;101505.94;;;5.29;83.57
75221;BME280;63802;53.232;6.570;2023-02-01T01:58:42;101508.91;;;5.19;84.45
75221;BME280;63802;53.232;6.570;2023-02-01T02:01:08;101518.63;;;5.20;84.69
75221;BME280;63802;53.232;6.570;2023-02-01T02:03:37;101504.31;;;5.20;84.99
75221;BME280;63802;53.232;6.570;2023-02-01T02:06:06;101506.41;;;5.23;85.28
75221;BME280;63802;53.232;6.570;2023-02-01T02:08:34;101508.91;;;5.19;85.68
75221;BME280;63802;53.232;6.570;2023-02-01T02:11:00;101504.59;;;5.18;85.70
75221;BME280;63802;53.232;6.570;2023-02-01T02:13:42;101512.53;;;5.15;86.07
75221;BME280;63802;53.232;6.570;2023-02-01T02:16:33;101499.81;;;5.15;86.38
75221;BME280;63802;53.232;6.570;2023-02-01T02:27:40;101479.75;;;5.16;86.79
75221;BME280;63802;53.232;6.570;2023-02-01T02:35:59;101469.19;;;5.06;86.69
75221;BME280;63802;53.232;6.570;2023-02-01T02:38:47;101457.28;;;5.07;86.80
75221;BME280;63802;53.232;6.570;2023-02-01T02:41:35;101448.44;;;5.15;86.77
75221;BME280;63802;53.232;6.570;2023-02-01T02:50:36;101435.72;;;5.16;86.62
75221;BME280;63802;53.232;6.570;2023-02-01T02:53:31;101443.03;;;5.15;86.65
75221;BME280;63802;53.232;6.570;2023-02-01T02:56:18;101424.44;;;5.22;86.75
75221;BME280;63802;53.232;6.570;2023-02-01T02:59:04;101434.63;;;5.25;86.44
75221;BME280;63802;53.232;6.570;2023-02-01T03:01:50;101432.91;;;5.29;85.75
75221;BME280;63802;53.232;6.570;2023-02-01T03:04:34;101433.38;;;5.31;85.54
75221;BME280;63802;53.232;6.570;2023-02-01T03:10:27;101423.50;;;5.35;85.03
75221;BME280;63802;53.232;6.570;2023-02-01T03:13:03;101434.53;;;5.39;85.25
75221;BME280;63802;53.232;6.570;2023-02-01T03:15:39;101425.28;;;5.40;85.18
75221;BME280;63802;53.232;6.570;2023-02-01T03:18:28;101416.72;;;5.47;84.61
75221;BME280;63802;53.232;6.570;2023-02-01T03:20:58;101413.03;;;5.42;84.55
75221;BME280;63802;53.232;6.570;2023-02-01T03:23:31;101410.97;;;5.39;84.66
75221;BME280;63802;53.232;6.570;2023-02-01T03:26:00;101410.97;;;5.39;84.51
75221;BME280;63802;53.232;6.570;2023-02-01T03:28:28;101410.47;;;5.37;84.54
75221;BME280;63802;53.232;6.570;2023-02-01T03:30:55;101399.84;;;5.50;84.05
75221;BME280;63802;53.232;6.570;2023-02-01T03:33:23;101394.94;;;5.52;83.64
75221;BME280;63802;53.232;6.570;2023-02-01T03:36:12;101403.69;;;5.49;83.78
75221;BME280;63802;53.232;6.570;2023-02-01T03:44:06;101400.97;;;5.49;83.80
75221;BME280;63802;53.232;6.570;2023-02-01T03:46:43;101368.16;;;5.50;83.63
75221;BME280;63802;53.232;6.570;2023-02-01T03:49:18;101359.75;;;5.52;83.50
75221;BME280;63802;53.232;6.570;2023-02-01T03:51:45;101370.06;;;5.50;83.49
75221;BME280;63802;53.232;6.570;2023-02-01T03:54:13;101396.19;;;5.46;83.83
75221;BME280;63802;53.232;6.570;2023-02-01T03:56:42;101390.75;;;5.46;84.18
75221;BME280;63802;53.232;6.570;2023-02-01T03:59:10;101388.53;;;5.39;84.97
75221;BME280;63802;53.232;6.570;2023-02-01T04:01:35;101386.44;;;5.36;85.01
75221;BME280;63802;53.232;6.570;2023-02-01T04:04:00;101392.31;;;5.29;85.79
75221;BME280;63802;53.232;6.570;2023-02-01T04:06:26;101392.31;;;5.29;85.52
75221;BME280;63802;53.232;6.570;2023-02-01T04:08:51;101373.03;;;5.31;86.05
75221;BME280;63802;53.232;6.570;2023-02-01T04:11:20;101391.84;;;5.36;85.61
75221;BME280;63802;53.232;6.570;2023-02-01T04:13:45;101381.38;;;5.43;85.47
75221;BME280;63802;53.232;6.570;2023-02-01T04:16:11;101382.16;;;5.43;85.54
75221;BME280;63802;53.232;6.570;2023-02-01T04:18:37;101383.59;;;5.41;85.73
75221;BME280;63802;53.232;6.570;2023-02-01T04:21:03;101374.03;;;5.43;85.71
75221;BME280;63802;53.232;6.570;2023-02-01T04:23:29;101378.19;;;5.41;85.82
75221;BME280;63802;53.232;6.570;2023-02-01T04:25:58;101368.97;;;5.42;85.68
75221;BME280;63802;53.232;6.570;2023-02-01T04:28:24;101386.91;;;5.38;86.05
75221;BME280;63802;53.232;6.570;2023-02-01T04:30:49;101378.00;;;5.37;85.84
75221;BME280;63802;53.232;6.570;2023-02-01T04:33:15;101388.66;;;5.34;85.91
75221;BME280;63802;53.232;6.570;2023-02-01T04:35:41;101398.06;;;5.36;85.77
75221;BME280;63802;53.232;6.570;2023-02-01T04:38:06;101370.53;;;5.34;85.62
75221;BME280;63802;53.232;6.570;2023-02-01T04:40:32;101395.03;;;5.38;85.19
75221;BME280;63802;53.232;6.570;2023-02-01T04:42:58;101367.16;;;5.37;85.41
75221;BME280;63802;53.232;6.570;2023-02-01T04:45:23;101381.38;;;5.43;85.28
75221;BME280;63802;53.232;6.570;2023-02-01T04:47:49;101369.41;;;5.35;85.28
75221;BME280;63802;53.232;6.570;2023-02-01T04:50:14;101359.56;;;5.39;85.24
75221;BME280;63802;53.232;6.570;2023-02-01T04:52:40;101387.84;;;5.33;85.04
75221;BME280;63802;53.232;6.570;2023-02-01T04:55:06;101379.88;;;5.28;85.52
75221;BME280;63802;53.232;6.570;2023-02-01T04:57:32;101371.63;;;5.33;85.25
75221;BME280;63802;53.232;6.570;2023-02-01T04:59:57;101369.69;;;5.25;85.27
75221;BME280;63802;53.232;6.570;2023-02-01T05:02:23;101358.22;;;5.28;84.81
75221;BME280;63802;53.232;6.570;2023-02-01T05:04:48;101359.66;;;5.26;85.26
75221;BME280;63802;53.232;6.570;2023-02-01T05:07:13;101371.28;;;5.26;85.13
75221;BME280;63802;53.232;6.570;2023-02-01T05:09:39;101375.75;;;5.31;85.38
75221;BME280;63802;53.232;6.570;2023-02-01T05:12:05;101371.63;;;5.33;84.93
75221;BME280;63802;53.232;6.570;2023-02-01T05:14:48;101363.66;;;5.28;85.43
75221;BME280;63802;53.232;6.570;2023-02-01T05:17:14;101363.03;;;5.31;85.12
75221;BME280;63802;53.232;6.570;2023-02-01T05:19:39;101370.03;;;5.32;85.06
75221;BME280;63802;53.232;6.570;2023-02-01T05:22:05;101360.94;;;5.28;85.26
75221;BME280;63802;53.232;6.570;2023-02-01T05:24:30;101368.72;;;5.21;84.99
75221;BME280;63802;53.232;6.570;2023-02-01T05:26:56;101376.88;;;5.30;85.43
75221;BME280;63802;53.232;6.570;2023-02-01T05:29:21;101379.44;;;5.35;85.40
75221;BME280;63802;53.232;6.570;2023-02-01T05:31:47;101388.19;;;5.40;84.95
75221;BME280;63802;53.232;6.570;2023-02-01T05:34:13;101386.16;;;5.46;85.47
75221;BME280;63802;53.232;6.570;2023-02-01T05:36:39;101390.63;;;5.51;84.94
75221;BME280;63802;53.232;6.570;2023-02-01T05:39:04;101380.41;;;5.48;84.76
75221;BME280;63802;53.232;6.570;2023-02-01T05:41:30;101402.13;;;5.65;84.82
75221;BME280;63802;53.232;6.570;2023-02-01T05:43:58;101392.22;;;5.52;84.56
75221;BME280;63802;53.232;6.570;2023-02-01T05:46:24;101374.25;;;5.56;84.33
75221;BME280;63802;53.232;6.570;2023-02-01T05:48:49;101384.78;;;5.66;84.28
75221;BME280;63802;53.232;6.570;2023-02-01T05:51:15;101388.25;;;5.58;84.17
75221;BME280;63802;53.232;6.570;2023-02-01T05:53:43;101383.03;;;5.61;84.10
75221;BME280;63802;53.232;6.570;2023-02-01T05:56:08;101383.78;;;5.62;84.18
75221;BME280;63802;53.232;6.570;2023-02-01T05:58:34;101398.47;;;5.61;84.30
75221;BME280;63802;53.232;6.570;2023-02-01T06:01:00;101379.78;;;5.51;84.46
75221;BME280;63802;53.232;6.570;2023-02-01T06:03:26;101385.50;;;5.40;84.34
75221;BME280;63802;53.232;6.570;2023-02-01T06:05:51;101374.81;;;5.35;84.62
75221;BME280;63802;53.232;6.570;2023-02-01T06:08:17;101374.47;;;5.28;84.90
75221;BME280;63802;53.232;6.570;2023-02-01T06:10:43;101372.41;;;5.25;85.16
75221;BME280;63802;53.232;6.570;2023-02-01T06:13:08;101383.84;;;5.22;85.24
75221;BME280;63802;53.232;6.570;2023-02-01T06:15:34;101385.00;;;5.30;85.08
75221;BME280;63802;53.232;6.570;2023-02-01T06:18:00;101388.97;;;5.32;85.00
75221;BME280;63802;53.232;6.570;2023-02-01T06:20:26;101395.31;;;5.28;85.63
75221;BME280;63802;53.232;6.570;2023-02-01T06:22:51;101377.16;;;5.28;85.28
75221;BME280;63802;53.232;6.570;2023-02-01T06:25:18;101384.94;;;5.21;85.57
75221;BME280;63802;53.232;6.570;2023-02-01T06:27:44;101385.75;;;5.22;85.59
75221;BME280;63802;53.232;6.570;2023-02-01T06:30:11;101385.00;;;5.30;85.85
75221;BME280;63802;53.232;6.570;2023-02-01T06:32:39;101380.88;;;5.32;85.92
75221;BME280;63802;53.232;6.570;2023-02-01T06:35:09;101363.31;;;5.21;85.64
75221;BME280;63802;53.232;6.570;2023-02-01T06:37:41;101393.75;;;5.35;85.89
75221;BME280;63802;53.232;6.570;2023-02-01T06:40:07;101363.66;;;5.28;85.88
75221;BME280;63802;53.232;6.570;2023-02-01T06:42:34;101382.97;;;5.44;85.65
75221;BME280;63802;53.232;6.570;2023-02-01T06:44:59;101387.56;;;5.43;85.67
75221;BME280;63802;53.232;6.570;2023-02-01T06:47:24;101386.63;;;5.39;85.70
75221;BME280;63802;53.232;6.570;2023-02-01T06:49:50;101389.81;;;5.50;85.55
75221;BME280;63802;53.232;6.570;2023-02-01T06:52:15;101407.31;;;5.44;85.43
75221;BME280;63802;53.232;6.570;2023-02-01T06:54:40;101396.50;;;5.53;85.43
75221;BME280;63802;53.232;6.570;2023-02-01T06:57:06;101398.13;;;5.54;85.14
75221;BME280;63802;53.232;6.570;2023-02-01T06:59:31;101415.94;;;5.55;85.27
75221;BME280;63802;53.232;6.570;2023-02-01T07:01:56;101410.66;;;5.50;85.45
75221;BME280;63802;53.232;6.570;2023-02-01T07:04:22;101400.50;;;5.47;84.89
75221;BME280;63802;53.232;6.570;2023-02-01T07:06:47;101423.59;;;5.53;85.28
75221;BME280;63802;53.232;6.570;2023-02-01T07:09:13;101422.34;;;5.59;85.45
75221;BME280;63802;53.232;6.570;2023-02-01T07:11:38;101420.56;;;5.54;85.31
75221;BME280;63802;53.232;6.570;2023-02-01T07:14:09;101425.19;;;5.54;85.27
75221;BME280;63802;53.232;6.570;2023-02-01T07:16:34;101421.34;;;5.55;85.12
75221;BME280;63802;53.232;6.570;2023-02-01T07:19:00;101416.28;;;5.62;85.10
75221;BME280;63802;53.232;6.570;2023-02-01T07:21:25;101417.69;;;5.59;84.72
75221;BME280;63802;53.232;6.570;2023-02-01T07:23:53;101402.41;;;5.55;85.26
75221;BME280;63802;53.232;6.570;2023-02-01T07:26:19;101409.91;;;5.58;85.07
75221;BME280;63802;53.232;6.570;2023-02-01T07:28:45;101408.94;;;5.54;85.18
75221;BME280;63802;53.232;6.570;2023-02-01T07:31:16;101420.72;;;5.58;85.31
75221;BME280;63802;53.232;6.570;2023-02-01T07:33:44;101412.28;;;5.59;85.02
75221;BME280;63802;53.232;6.570;2023-02-01T07:36:15;101417.53;;;5.56;85.05
75221;BME280;63802;53.232;6.570;2023-02-01T07:38:40;101405.09;;;5.55;85.13
75221;BME280;63802;53.232;6.570;2023-02-01T07:41:06;101417.53;;;5.56;85.38
75221;BME280;63802;53.232;6.570;2023-02-01T07:43:33;101429.94;;;5.57;85.21
75221;BME280;63802;53.232;6.570;2023-02-01T07:46:00;101419.44;;;5.55;85.34
75221;BME280;63802;53.232;6.570;2023-02-01T07:48:26;101430.94;;;5.61;85.53
75221;BME280;63802;53.232;6.570;2023-02-01T07:51:02;101422.34;;;5.59;85.45
75221;BME280;63802;53.232;6.570;2023-02-01T07:53:29;101436.50;;;5.56;85.83
75221;BME280;63802;53.232;6.570;2023-02-01T07:55:55;101414.38;;;5.54;85.95
75221;BME280;63802;53.232;6.570;2023-02-01T07:58:24;101415.47;;;5.53;85.98
75221;BME280;63802;53.232;6.570;2023-02-01T08:00:50;101406.38;;;5.49;85.61
75221;BME280;63802;53.232;6.570;2023-02-01T08:03:34;101428.22;;;5.61;85.78
75221;BME280;63802;53.232;6.570;2023-02-01T08:05:59;101439.06;;;5.61;86.15
75221;BME280;63802;53.232;6.570;2023-02-01T08:08:25;101434.13;;;5.63;85.76
75221;BME280;63802;53.232;6.570;2023-02-01T08:10:50;101429.81;;;5.62;86.08
75221;BME280;63802;53.232;6.570;2023-02-01T08:13:16;101433.50;;;5.66;85.76
75221;BME280;63802;53.232;6.570;2023-02-01T08:15:42;101418.84;;;5.67;86.12
75221;BME280;63802;53.232;6.570;2023-02-01T08:18:07;101422.34;;;5.67;85.62
75221;BME280;63802;53.232;6.570;2023-02-01T08:20:35;101420.94;;;5.70;85.46
75221;BME280;63802;53.232;6.570;2023-02-01T08:23:02;101430.00;;;5.74;85.19
75221;BME280;63802;53.232;6.570;2023-02-01T08:25:27;101437.66;;;5.72;85.07
75221;BME280;63802;53.232;6.570;2023-02-01T08:27:53;101423.00;;;5.73;85.15
75221;BME280;63802;53.232;6.570;2023-02-01T08:30:20;101427.63;;;5.72;84.91
75221;BME280;63802;53.232;6.570;2023-02-01T08:32:47;101422.53;;;5.71;85.11
75221;BME280;63802;53.232;6.570;2023-02-01T08:35:13;101421.88;;;5.74;85.38
75221;BME280;63802;53.232;6.570;2023-02-01T08:37:38;101419.34;;;5.77;85.15
75221;BME280;63802;53.232;6.570;2023-02-01T08:40:04;101411.56;;;5.76;85.08
75221;BME280;63802;53.232;6.570;2023-02-01T08:42:30;101410.09;;;5.78;84.93
75221;BME280;63802;53.232;6.570;2023-02-01T08:45:14;101412.50;;;5.80;85.20
75221;BME280;63802;53.232;6.570;2023-02-01T08:47:40;101403.25;;;5.81;85.16
75221;BME280;63802;53.232;6.570;2023-02-01T08:50:05;101404.69;;;5.78;85.39
75221;BME280;63802;53.232;6.570;2023-02-01T08:52:31;101398.34;;;5.83;85.24
75221;BME280;63802;53.232;6.570;2023-02-01T08:54:56;101400.56;;;5.81;84.93
75221;BME280;63802;53.232;6.570;2023-02-01T08:57:22;101402.84;;;5.87;84.67
75221;BME280;63802;53.232;6.570;2023-02-01T08:59:47;101384.81;;;5.83;84.69
75221;BME280;63802;53.232;6.570;2023-02-01T09:02:14;101378.09;;;5.72;84.65
75221;BME280;63802;53.232;6.570;2023-02-01T09:04:40;101389.59;;;5.86;84.74
75221;BME280;63802;53.232;6.570;2023-02-01T09:07:06;101366.16;;;5.81;84.46
75221;BME280;63802;53.232;6.570;2023-02-01T09:09:32;101372.38;;;5.82;84.25
75221;BME280;63802;53.232;6.570;2023-02-01T09:11:57;101338.41;;;5.67;84.40
75221;BME280;63802;53.232;6.570;2023-02-01T09:14:23;101373.34;;;5.86;84.01
75221;BME280;63802;53.232;6.570;2023-02-01T09:16:48;101374.34;;;5.90;84.18
75221;BME280;63802;53.232;6.570;2023-02-01T09:19:14;101367.31;;;5.89;83.87
75221;BME280;63802;53.232;6.570;2023-02-01T09:21:39;101380.84;;;5.89;84.06
75221;BME280;63802;53.232;6.570;2023-02-01T09:24:05;101376.53;;;5.88;83.94
75221;BME280;63802;53.232;6.570;2023-02-01T09:26:32;101343.69;;;5.81;83.62
75221;BME280;63802;53.232;6.570;2023-02-01T09:28:57;101366.22;;;5.90;83.54
75221;BME280;63802;53.232;6.570;2023-02-01T09:31:23;101357.91;;;5.86;83.67
75221;BME280;63802;53.232;6.570;2023-02-01T09:33:48;101351.25;;;5.92;84.06
75221;BME280;63802;53.232;6.570;2023-02-01T09:36:14;101337.84;;;5.87;83.26
75221;BME280;63802;53.232;6.570;2023-02-01T09:38:39;101341.19;;;5.93;83.30
75221;BME280;63802;53.232;6.570;2023-02-01T09:41:26;101352.50;;;5.95;83.48
75221;BME280;63802;53.232;6.570;2023-02-01T09:44:12;101335.13;;;5.96;83.66
75221;BME280;63802;53.232;6.570;2023-02-01T09:46:40;101329.56;;;5.92;83.71
75221;BME280;63802;53.232;6.570;2023-02-01T09:49:13;101332.72;;;5.86;84.50
75221;BME280;63802;53.232;6.570;2023-02-01T09:51:44;101325.88;;;5.80;84.21
75221;BME280;63802;53.232;6.570;2023-02-01T09:54:16;101317.25;;;5.78;84.56
75221;BME280;63802;53.232;6.570;2023-02-01T09:59:31;101290.81;;;5.75;84.85
75221;BME280;63802;53.232;6.570;2023-02-01T10:01:59;101312.47;;;5.75;85.39
75221;BME280;63802;53.232;6.570;2023-02-01T10:04:26;101300.19;;;5.69;85.55
75221;BME280;63802;53.232;6.570;2023-02-01T10:07:34;101294.97;;;5.64;86.26
75221;BME280;63802;53.232;6.570;2023-02-01T10:10:04;101305.75;;;5.47;87.05
75221;BME280;63802;53.232;6.570;2023-02-01T10:13:05;101315.59;;;5.42;88.00
75221;BME280;63802;53.232;6.570;2023-02-01T10:26:18;101276.47;;;5.49;88.63
75221;BME280;63802;53.232;6.570;2023-02-01T10:28:58;101280.44;;;5.51;88.66
75221;BME280;63802;53.232;6.570;2023-02-01T10:31:31;101274.88;;;5.48;88.70
75221;BME280;63802;53.232;6.570;2023-02-01T10:34:01;101281.88;;;5.49;88.94
75221;BME280;63802;53.232;6.570;2023-02-01T10:36:35;101265.66;;;5.49;88.86
75221;BME280;63802;53.232;6.570;2023-02-01T10:39:03;101274.06;;;5.64;88.34
75221;BME280;63802;53.232;6.570;2023-02-01T10:41:34;101264.06;;;5.65;88.24
75221;BME280;63802;53.232;6.570;2023-02-01T10:44:03;101266.78;;;5.73;87.90
75221;BME280;63802;53.232;6.570;2023-02-01T10:46:30;101277.13;;;5.80;87.72
75221;BME280;63802;53.232;6.570;2023-02-01T10:48:58;101271.41;;;5.90;87.50
75221;BME280;63802;53.232;6.570;2023-02-01T10:51:51;101270.75;;;5.93;86.99
75221;BME280;63802;53.232;6.570;2023-02-01T10:54:20;101263.44;;;6.02;87.07
75221;BME280;63802;53.232;6.570;2023-02-01T10:56:46;101281.44;;;6.06;86.30
75221;BME280;63802;53.232;6.570;2023-02-01T10:59:17;101285.72;;;6.16;86.50
75221;BME280;63802;53.232;6.570;2023-02-01T11:01:45;101293.34;;;6.31;85.69
75221;BME280;63802;53.232;6.570;2023-02-01T11:04:13;101282.31;;;6.36;85.52
75221;BME280;63802;53.232;6.570;2023-02-01T11:09:35;101275.19;;;6.23;85.63
75221;BME280;63802;53.232;6.570;2023-02-01T11:12:03;101285.41;;;6.09;85.75
75221;BME280;63802;53.232;6.570;2023-02-01T11:14:39;101300.06;;;5.91;86.77
75221;BME280;63802;53.232;6.570;2023-02-01T11:19:44;101266.28;;;5.63;88.08
75221;BME280;63802;53.232;6.570;2023-02-01T11:22:12;101261.50;;;5.77;88.57
75221;BME280;63802;53.232;6.570;2023-02-01T11:24:39;101274.88;;;5.82;88.54
75221;BME280;63802;53.232;6.570;2023-02-01T11:27:17;101291.94;;;5.65;88.67
75221;BME280;63802;53.232;6.570;2023-02-01T11:29:46;101281.53;;;5.24;88.52
75221;BME280;63802;53.232;6.570;2023-02-01T11:32:15;101283.91;;;5.17;89.23
75221;BME280;63802;53.232;6.570;2023-02-01T11:35:03;101295.03;;;5.16;89.97
75221;BME280;63802;53.232;6.570;2023-02-01T11:37:37;101323.84;;;4.50;90.16
75221;BME280;63802;53.232;6.570;2023-02-01T11:40:23;101329.06;;;3.80;89.94
75221;BME280;63802;53.232;6.570;2023-02-01T11:42:56;101318.84;;;3.42;90.12
75221;BME280;63802;53.232;6.570;2023-02-01T11:45:28;101307.19;;;3.19;90.18
75221;BME280;63802;53.232;6.570;2023-02-01T11:47:55;101309.19;;;3.13;90.91
75221;BME280;63802;53.232;6.570;2023-02-01T11:55:41;101324.56;;;3.13;92.09
75221;BME280;63802;53.232;6.570;2023-02-01T12:06:29;101334.97;;;3.33;93.15
75221;BME280;63802;53.232;6.570;2023-02-01T12:09:05;101325.53;;;3.44;93.06
75221;BME280;63802;53.232;6.570;2023-02-01T12:22:45;101306.31;;;4.17;93.54
75221;BME280;63802;53.232;6.570;2023-02-01T12:33:43;101305.63;;;5.52;93.51
75221;BME280;63802;53.232;6.570;2023-02-01T12:36:18;101305.50;;;5.99;93.46
75221;BME280;63802;53.232;6.570;2023-02-01T12:41:47;101302.03;;;6.62;92.67
75221;BME280;63802;53.232;6.570;2023-02-01T12:44:28;101288.84;;;6.52;92.31
75221;BME280;63802;53.232;6.570;2023-02-01T12:47:21;101297.56;;;6.58;91.92
75221;BME280;63802;53.232;6.570;2023-02-01T12:55:28;101301.72;;;6.55;91.05
75221;BME280;63802;53.232;6.570;2023-02-01T12:58:14;101300.75;;;6.60;90.53
75221;BME280;63802;53.232;6.570;2023-02-01T13:00:50;101319.44;;;6.61;90.67
75221;BME280;63802;53.232;6.570;2023-02-01T13:03:36;101307.31;;;6.50;90.18
75221;BME280;63802;53.232;6.570;2023-02-01T13:06:13;101300.16;;;6.54;90.26
75221;BME280;63802;53.232;6.570;2023-02-01T13:08:57;101307.13;;;6.64;89.71
75221;BME280;63802;53.232;6.570;2023-02-01T13:11:38;101311.28;;;6.61;89.55
75221;BME280;63802;53.232;6.570;2023-02-01T13:16:49;101305.94;;;6.91;88.87
75221;BME280;63802;53.232;6.570;2023-02-01T13:19:39;101309.69;;;7.07;88.71
75221;BME280;63802;53.232;6.570;2023-02-01T13:22:13;101314.81;;;7.00;88.25
75221;BME280;63802;53.232;6.570;2023-02-01T13:25:00;101314.19;;;7.03;87.67
75221;BME280;63802;53.232;6.570;2023-02-01T13:27:28;101324.75;;;6.96;87.62
75221;BME280;63802;53.232;6.570;2023-02-01T13:30:01;101319.78;;;6.89;86.92
75221;BME280;63802;53.232;6.570;2023-02-01T13:43:51;101332.88;;;6.96;86.17
75221;BME280;63802;53.232;6.570;2023-02-01T13:46:18;101342.59;;;6.97;86.07
75221;BME280;63802;53.232;6.570;2023-02-01T13:48:57;101354.09;;;6.94;86.40
75221;BME280;63802;53.232;6.570;2023-02-01T13:51:57;101346.13;;;6.89;86.09
75221;BME280;63802;53.232;6.570;2023-02-01T13:54:32;101353.66;;;6.83;86.10
75221;BME280;63802;53.232;6.570;2023-02-01T13:57:00;101348.06;;;6.80;85.76
75221;BME280;63802;53.232;6.570;2023-02-01T14:02:36;101353.50;;;6.80;86.02
75221;BME280;63802;53.232;6.570;2023-02-01T14:05:02;101349.69;;;6.81;86.07
75221;BME280;63802;53.232;6.570;2023-02-01T14:07:28;101342.81;;;6.74;86.22
75221;BME280;63802;53.232;6.570;2023-02-01T14:09:54;101354.94;;;6.77;86.25
75221;BME280;63802;53.232;6.570;2023-02-01T14:12:46;101358.00;;;6.75;86.37
75221;BME280;63802;53.232;6.570;2023-02-01T14:17:47;101363.25;;;6.81;86.50
75221;BME280;63802;53.232;6.570;2023-02-01T14:20:41;101367.22;;;6.83;86.54
75221;BME280;63802;53.232;6.570;2023-02-01T14:23:13;101361.16;;;6.78;86.36
75221;BME280;63802;53.232;6.570;2023-02-01T14:25:40;101357.19;;;6.75;86.40
75221;BME280;63802;53.232;6.570;2023-02-01T14:28:24;101348.06;;;6.80;86.16
75221;BME280;63802;53.232;6.570;2023-02-01T14:30:51;101361.16;;;6.78;86.13
75221;BME280;63802;53.232;6.570;2023-02-01T14:33:21;101362.78;;;6.79;86.26
75221;BME280;63802;53.232;6.570;2023-02-01T14:36:11;101373.31;;;6.71;86.39
75221;BME280;63802;53.232;6.570;2023-02-01T14:38:38;101357.38;;;6.61;85.95
75221;BME280;63802;53.232;6.570;2023-02-01T14:49:31;101380.31;;;6.72;86.31
75221;BME280;63802;53.232;6.570;2023-02-01T14:51:58;101371.72;;;6.70;85.92
75221;BME280;63802;53.232;6.570;2023-02-01T14:54:25;101398.19;;;6.73;85.48
75221;BME280;63802;53.232;6.570;2023-02-01T14:56:51;101385.13;;;6.58;85.74
75221;BME280;63802;53.232;6.570;2023-02-01T14:59:20;101394.88;;;6.51;85.48
75221;BME280;63802;53.232;6.570;2023-02-01T15:01:54;101401.28;;;6.38;85.66
75221;BME280;63802;53.232;6.570;2023-02-01T15:04:25;101390.13;;;6.31;85.36
75221;BME280;63802;53.232;6.570;2023-02-01T15:06:54;101399.84;;;6.23;85.35
75221;BME280;63802;53.232;6.570;2023-02-01T15:09:28;101392.50;;;6.15;85.64
75221;BME280;63802;53.232;6.570;2023-02-01T15:12:00;101411.94;;;6.17;85.56